sensor_id;sensor_type;location;lat;lon;timestamp;P1;durP1;ratioP1;P2;durP2;ratioP2
54641;SDS011;40536;53.194;5.728;2023-07-29T00:01:50;76.03;;;72.20;;
54641;SDS011;40536;53.194;5.728;2023-07-29T00:04:16;62.90;;;59.50;;
54641;SDS011;40536;53.194;5.728;2023-07-29T00:06:43;76.00;;;71.90;;
54641;SDS011;40536;53.194;5.728;2023-07-29T00:09:12;77.50;;;73.38;;
54641;SDS011;40536;53.194;5.728;2023-07-29T00:11:38;69.15;;;65.18;;
54641;SDS011;40536;53.194;5.728;2023-07-29T00:14:03;67.03;;;63.13;;
54641;SDS011;40536;53.194;5.728;2023-07-29T00:16:29;47.60;;;44.72;;
54641;SDS011;40536;53.194;5.728;2023-07-29T00:18:55;63.00;;;59.10;;
54641;SDS011;40536;53.194;5.728;2023-07-29T00:21:20;60.25;;;56.95;;
54641;SDS011;40536;53.194;5.728;2023-07-29T00:23:46;68.68;;;64.70;;
54641;SDS011;40536;53.194;5.728;2023-07-29T00:26:11;55.72;;;52.50;;
54641;SDS011;40536;53.194;5.728;2023-07-29T00:28:37;59.97;;;56.47;;
54641;SDS011;40536;53.194;5.728;2023-07-29T00:31:03;42.47;;;39.38;;
54641;SDS011;40536;53.194;5.728;2023-07-29T00:33:28;66.45;;;62.67;;
54641;SDS011;40536;53.194;5.728;2023-07-29T00:35:54;53.38;;;49.95;;
54641;SDS011;40536;53.194;5.728;2023-07-29T00:38:20;52.67;;;49.50;;
54641;SDS011;40536;53.194;5.728;2023-07-29T00:40:45;50.35;;;46.97;;
54641;SDS011;40536;53.194;5.728;2023-07-29T00:43:11;50.03;;;47.25;;
54641;SDS011;40536;53.194;5.728;2023-07-29T00:45:37;43.58;;;40.97;;
54641;SDS011;40536;53.194;5.728;2023-07-29T00:48:04;44.75;;;41.83;;
54641;SDS011;40536;53.194;5.728;2023-07-29T00:50:30;70.65;;;66.57;;
54641;SDS011;40536;53.194;5.728;2023-07-29T00:52:57;59.33;;;55.75;;
54641;SDS011;40536;53.194;5.728;2023-07-29T00:55:23;66.05;;;62.45;;
54641;SDS011;40536;53.194;5.728;2023-07-29T00:57:50;79.75;;;75.20;;
54641;SDS011;40536;53.194;5.728;2023-07-29T01:00:18;92.93;;;88.28;;
54641;SDS011;40536;53.194;5.728;2023-07-29T01:02:44;111.63;;;105.38;;
54641;SDS011;40536;53.194;5.728;2023-07-29T01:05:11;94.57;;;89.55;;
54641;SDS011;40536;53.194;5.728;2023-07-29T01:07:42;114.43;;;108.32;;
54641;SDS011;40536;53.194;5.728;2023-07-29T01:10:17;114.63;;;108.65;;
54641;SDS011;40536;53.194;5.728;2023-07-29T01:12:48;84.32;;;79.65;;
54641;SDS011;40536;53.194;5.728;2023-07-29T01:17:55;131.93;;;125.18;;
54641;SDS011;40536;53.194;5.728;2023-07-29T01:20:24;163.15;;;155.15;;
54641;SDS011;40536;53.194;5.728;2023-07-29T01:22:51;173.20;;;165.25;;
54641;SDS011;40536;53.194;5.728;2023-07-29T01:25:17;198.75;;;189.13;;
54641;SDS011;40536;53.194;5.728;2023-07-29T01:27:44;202.05;;;191.98;;
54641;SDS011;40536;53.194;5.728;2023-07-29T01:30:11;251.98;;;240.15;;
54641;SDS011;40536;53.194;5.728;2023-07-29T01:32:39;251.60;;;238.48;;
54641;SDS011;40536;53.194;5.728;2023-07-29T01:35:21;249.85;;;237.23;;
54641;SDS011;40536;53.194;5.728;2023-07-29T01:37:49;358.05;;;339.70;;
54641;SDS011;40536;53.194;5.728;2023-07-29T01:40:18;299.02;;;284.58;;
54641;SDS011;40536;53.194;5.728;2023-07-29T01:42:44;293.17;;;278.67;;
54641;SDS011;40536;53.194;5.728;2023-07-29T01:45:11;301.75;;;286.60;;
54641;SDS011;40536;53.194;5.728;2023-07-29T01:47:36;289.10;;;274.13;;
54641;SDS011;40536;53.194;5.728;2023-07-29T01:50:05;207.57;;;197.30;;
54641;SDS011;40536;53.194;5.728;2023-07-29T01:52:32;180.38;;;171.63;;
54641;SDS011;40536;53.194;5.728;2023-07-29T01:54:57;266.38;;;253.88;;
54641;SDS011;40536;53.194;5.728;2023-07-29T01:57:23;207.02;;;197.32;;
54641;SDS011;40536;53.194;5.728;2023-07-29T01:59:48;266.27;;;252.15;;
54641;SDS011;40536;53.194;5.728;2023-07-29T02:02:14;244.00;;;232.95;;
54641;SDS011;40536;53.194;5.728;2023-07-29T02:04:40;175.50;;;167.25;;
54641;SDS011;40536;53.194;5.728;2023-07-29T02:07:07;152.23;;;144.80;;
54641;SDS011;40536;53.194;5.728;2023-07-29T02:09:33;125.82;;;119.40;;
54641;SDS011;40536;53.194;5.728;2023-07-29T02:11:59;124.47;;;117.95;;
54641;SDS011;40536;53.194;5.728;2023-07-29T02:14:25;122.55;;;115.93;;
54641;SDS011;40536;53.194;5.728;2023-07-29T02:16:50;106.45;;;100.65;;
54641;SDS011;40536;53.194;5.728;2023-07-29T02:19:16;100.05;;;94.78;;
54641;SDS011;40536;53.194;5.728;2023-07-29T02:21:42;128.13;;;121.03;;
54641;SDS011;40536;53.194;5.728;2023-07-29T02:24:08;110.50;;;104.28;;
54641;SDS011;40536;53.194;5.728;2023-07-29T02:26:33;111.07;;;105.13;;
54641;SDS011;40536;53.194;5.728;2023-07-29T02:28:59;122.45;;;115.88;;
54641;SDS011;40536;53.194;5.728;2023-07-29T02:31:24;118.55;;;112.13;;
54641;SDS011;40536;53.194;5.728;2023-07-29T02:33:50;124.35;;;117.35;;
54641;SDS011;40536;53.194;5.728;2023-07-29T02:36:17;158.88;;;150.18;;
54641;SDS011;40536;53.194;5.728;2023-07-29T02:38:43;111.25;;;104.95;;
54641;SDS011;40536;53.194;5.728;2023-07-29T02:41:09;89.20;;;84.10;;
54641;SDS011;40536;53.194;5.728;2023-07-29T02:43:37;94.00;;;88.78;;
54641;SDS011;40536;53.194;5.728;2023-07-29T02:46:03;95.85;;;90.70;;
54641;SDS011;40536;53.194;5.728;2023-07-29T02:48:29;95.78;;;90.47;;
54641;SDS011;40536;53.194;5.728;2023-07-29T02:50:55;67.60;;;63.60;;
54641;SDS011;40536;53.194;5.728;2023-07-29T02:53:24;56.10;;;52.58;;
54641;SDS011;40536;53.194;5.728;2023-07-29T02:55:50;58.67;;;55.28;;
54641;SDS011;40536;53.194;5.728;2023-07-29T02:58:15;51.88;;;48.45;;
54641;SDS011;40536;53.194;5.728;2023-07-29T03:00:41;50.78;;;47.40;;
54641;SDS011;40536;53.194;5.728;2023-07-29T03:03:08;38.17;;;35.10;;
54641;SDS011;40536;53.194;5.728;2023-07-29T03:05:34;38.45;;;35.47;;
54641;SDS011;40536;53.194;5.728;2023-07-29T03:08:02;29.90;;;27.50;;
54641;SDS011;40536;53.194;5.728;2023-07-29T03:10:28;33.38;;;30.92;;
54641;SDS011;40536;53.194;5.728;2023-07-29T03:12:54;30.75;;;28.45;;
54641;SDS011;40536;53.194;5.728;2023-07-29T03:15:22;29.58;;;27.38;;
54641;SDS011;40536;53.194;5.728;2023-07-29T03:17:50;26.98;;;24.70;;
54641;SDS011;40536;53.194;5.728;2023-07-29T03:20:15;28.55;;;26.23;;
54641;SDS011;40536;53.194;5.728;2023-07-29T03:22:43;33.13;;;30.60;;
54641;SDS011;40536;53.194;5.728;2023-07-29T03:25:11;25.42;;;23.23;;
54641;SDS011;40536;53.194;5.728;2023-07-29T03:27:37;22.35;;;20.65;;
54641;SDS011;40536;53.194;5.728;2023-07-29T03:30:05;36.30;;;33.63;;
54641;SDS011;40536;53.194;5.728;2023-07-29T03:32:31;21.10;;;19.48;;
54641;SDS011;40536;53.194;5.728;2023-07-29T03:34:57;36.10;;;33.50;;
54641;SDS011;40536;53.194;5.728;2023-07-29T03:37:23;29.35;;;27.20;;
54641;SDS011;40536;53.194;5.728;2023-07-29T03:39:49;30.50;;;28.27;;
54641;SDS011;40536;53.194;5.728;2023-07-29T03:42:17;21.52;;;19.60;;
54641;SDS011;40536;53.194;5.728;2023-07-29T03:44:43;41.83;;;39.25;;
54641;SDS011;40536;53.194;5.728;2023-07-29T03:47:08;38.53;;;35.95;;
54641;SDS011;40536;53.194;5.728;2023-07-29T03:49:34;38.60;;;36.00;;
54641;SDS011;40536;53.194;5.728;2023-07-29T03:51:59;42.80;;;39.97;;
54641;SDS011;40536;53.194;5.728;2023-07-29T03:54:25;40.22;;;37.38;;
54641;SDS011;40536;53.194;5.728;2023-07-29T03:56:51;57.00;;;53.25;;
54641;SDS011;40536;53.194;5.728;2023-07-29T03:59:16;46.05;;;42.33;;
54641;SDS011;40536;53.194;5.728;2023-07-29T04:01:42;44.65;;;41.28;;
54641;SDS011;40536;53.194;5.728;2023-07-29T04:04:08;54.33;;;50.97;;
54641;SDS011;40536;53.194;5.728;2023-07-29T04:06:36;42.63;;;39.47;;
54641;SDS011;40536;53.194;5.728;2023-07-29T04:09:01;50.35;;;47.42;;
54641;SDS011;40536;53.194;5.728;2023-07-29T04:11:27;48.75;;;45.35;;
54641;SDS011;40536;53.194;5.728;2023-07-29T04:13:53;53.40;;;49.83;;
54641;SDS011;40536;53.194;5.728;2023-07-29T04:16:18;78.53;;;73.70;;
54641;SDS011;40536;53.194;5.728;2023-07-29T04:18:44;56.15;;;52.53;;
54641;SDS011;40536;53.194;5.728;2023-07-29T04:21:10;57.60;;;54.25;;
54641;SDS011;40536;53.194;5.728;2023-07-29T04:23:35;45.08;;;42.15;;
54641;SDS011;40536;53.194;5.728;2023-07-29T04:26:01;60.63;;;57.00;;
54641;SDS011;40536;53.194;5.728;2023-07-29T04:28:27;85.03;;;80.15;;
54641;SDS011;40536;53.194;5.728;2023-07-29T04:30:52;57.72;;;54.00;;
54641;SDS011;40536;53.194;5.728;2023-07-29T04:33:18;95.20;;;89.82;;
54641;SDS011;40536;53.194;5.728;2023-07-29T04:35:43;98.25;;;92.93;;
54641;SDS011;40536;53.194;5.728;2023-07-29T04:38:10;79.57;;;74.57;;
54641;SDS011;40536;53.194;5.728;2023-07-29T04:40:35;103.03;;;97.70;;
54641;SDS011;40536;53.194;5.728;2023-07-29T04:43:01;86.47;;;81.78;;
54641;SDS011;40536;53.194;5.728;2023-07-29T04:45:30;94.47;;;89.57;;
54641;SDS011;40536;53.194;5.728;2023-07-29T04:47:56;70.82;;;66.47;;
54641;SDS011;40536;53.194;5.728;2023-07-29T04:50:23;59.15;;;55.50;;
54641;SDS011;40536;53.194;5.728;2023-07-29T04:52:48;74.25;;;70.03;;
54641;SDS011;40536;53.194;5.728;2023-07-29T04:55:14;79.55;;;74.80;;
54641;SDS011;40536;53.194;5.728;2023-07-29T04:57:40;67.05;;;62.50;;
54641;SDS011;40536;53.194;5.728;2023-07-29T05:00:06;63.35;;;59.67;;
54641;SDS011;40536;53.194;5.728;2023-07-29T05:02:32;58.72;;;55.15;;
54641;SDS011;40536;53.194;5.728;2023-07-29T05:04:57;87.82;;;82.57;;
54641;SDS011;40536;53.194;5.728;2023-07-29T05:07:24;72.65;;;68.55;;
54641;SDS011;40536;53.194;5.728;2023-07-29T05:09:49;51.33;;;48.28;;
54641;SDS011;40536;53.194;5.728;2023-07-29T05:12:15;65.78;;;61.65;;
54641;SDS011;40536;53.194;5.728;2023-07-29T05:14:41;68.13;;;64.13;;
54641;SDS011;40536;53.194;5.728;2023-07-29T05:17:06;45.35;;;42.50;;
54641;SDS011;40536;53.194;5.728;2023-07-29T05:19:32;53.70;;;50.58;;
54641;SDS011;40536;53.194;5.728;2023-07-29T05:21:57;39.58;;;37.15;;
54641;SDS011;40536;53.194;5.728;2023-07-29T05:24:23;46.05;;;42.90;;
54641;SDS011;40536;53.194;5.728;2023-07-29T05:26:49;42.30;;;39.25;;
54641;SDS011;40536;53.194;5.728;2023-07-29T05:29:15;44.03;;;41.28;;
54641;SDS011;40536;53.194;5.728;2023-07-29T05:31:40;34.60;;;32.15;;
54641;SDS011;40536;53.194;5.728;2023-07-29T05:34:06;58.55;;;54.55;;
54641;SDS011;40536;53.194;5.728;2023-07-29T05:36:32;38.60;;;36.20;;
54641;SDS011;40536;53.194;5.728;2023-07-29T05:38:58;47.15;;;44.15;;
54641;SDS011;40536;53.194;5.728;2023-07-29T05:41:23;49.58;;;46.58;;
54641;SDS011;40536;53.194;5.728;2023-07-29T05:43:51;72.35;;;68.03;;
54641;SDS011;40536;53.194;5.728;2023-07-29T05:46:16;80.80;;;75.95;;
54641;SDS011;40536;53.194;5.728;2023-07-29T05:48:42;84.28;;;79.57;;
54641;SDS011;40536;53.194;5.728;2023-07-29T05:51:08;105.13;;;99.20;;
54641;SDS011;40536;53.194;5.728;2023-07-29T05:53:33;97.50;;;92.15;;
54641;SDS011;40536;53.194;5.728;2023-07-29T05:55:59;83.20;;;78.35;;
54641;SDS011;40536;53.194;5.728;2023-07-29T05:58:25;86.82;;;81.95;;
54641;SDS011;40536;53.194;5.728;2023-07-29T06:00:50;74.30;;;70.43;;
54641;SDS011;40536;53.194;5.728;2023-07-29T06:03:16;69.03;;;64.78;;
54641;SDS011;40536;53.194;5.728;2023-07-29T06:05:42;41.85;;;39.03;;
54641;SDS011;40536;53.194;5.728;2023-07-29T06:08:07;52.28;;;48.67;;
54641;SDS011;40536;53.194;5.728;2023-07-29T06:10:36;43.22;;;39.85;;
54641;SDS011;40536;53.194;5.728;2023-07-29T06:13:01;36.17;;;33.63;;
54641;SDS011;40536;53.194;5.728;2023-07-29T06:15:27;23.55;;;21.35;;
54641;SDS011;40536;53.194;5.728;2023-07-29T06:17:53;16.65;;;14.93;;
54641;SDS011;40536;53.194;5.728;2023-07-29T06:20:18;16.75;;;11.68;;
54641;SDS011;40536;53.194;5.728;2023-07-29T06:22:44;17.33;;;10.40;;
54641;SDS011;40536;53.194;5.728;2023-07-29T06:25:10;16.73;;;10.45;;
54641;SDS011;40536;53.194;5.728;2023-07-29T06:27:35;15.15;;;10.65;;
54641;SDS011;40536;53.194;5.728;2023-07-29T06:30:01;17.98;;;10.15;;
54641;SDS011;40536;53.194;5.728;2023-07-29T06:32:27;11.85;;;9.20;;
54641;SDS011;40536;53.194;5.728;2023-07-29T06:34:53;14.68;;;9.30;;
54641;SDS011;40536;53.194;5.728;2023-07-29T06:37:19;10.90;;;9.20;;
54641;SDS011;40536;53.194;5.728;2023-07-29T06:39:45;14.07;;;8.65;;
54641;SDS011;40536;53.194;5.728;2023-07-29T06:42:11;16.05;;;8.68;;
54641;SDS011;40536;53.194;5.728;2023-07-29T06:44:36;11.73;;;8.52;;
54641;SDS011;40536;53.194;5.728;2023-07-29T06:47:02;13.68;;;9.82;;
54641;SDS011;40536;53.194;5.728;2023-07-29T06:49:28;16.75;;;9.50;;
54641;SDS011;40536;53.194;5.728;2023-07-29T06:51:54;13.15;;;9.73;;
54641;SDS011;40536;53.194;5.728;2023-07-29T06:54:22;17.25;;;9.15;;
54641;SDS011;40536;53.194;5.728;2023-07-29T06:56:50;12.15;;;9.30;;
54641;SDS011;40536;53.194;5.728;2023-07-29T06:59:16;13.88;;;9.98;;
54641;SDS011;40536;53.194;5.728;2023-07-29T07:01:41;13.13;;;10.10;;
54641;SDS011;40536;53.194;5.728;2023-07-29T07:04:07;13.05;;;10.27;;
54641;SDS011;40536;53.194;5.728;2023-07-29T07:06:33;13.95;;;11.10;;
54641;SDS011;40536;53.194;5.728;2023-07-29T07:08:59;12.63;;;10.65;;
54641;SDS011;40536;53.194;5.728;2023-07-29T07:11:25;15.15;;;13.35;;
54641;SDS011;40536;53.194;5.728;2023-07-29T07:13:50;14.73;;;11.68;;
54641;SDS011;40536;53.194;5.728;2023-07-29T07:16:16;16.23;;;11.23;;
54641;SDS011;40536;53.194;5.728;2023-07-29T07:18:41;16.67;;;9.25;;
54641;SDS011;40536;53.194;5.728;2023-07-29T07:21:08;10.38;;;7.90;;
54641;SDS011;40536;53.194;5.728;2023-07-29T07:23:34;12.48;;;7.35;;
54641;SDS011;40536;53.194;5.728;2023-07-29T07:26:00;10.30;;;6.20;;
54641;SDS011;40536;53.194;5.728;2023-07-29T07:28:25;8.73;;;6.13;;
54641;SDS011;40536;53.194;5.728;2023-07-29T07:30:51;16.95;;;7.40;;
54641;SDS011;40536;53.194;5.728;2023-07-29T07:33:17;10.63;;;6.57;;
54641;SDS011;40536;53.194;5.728;2023-07-29T07:35:43;9.00;;;6.90;;
54641;SDS011;40536;53.194;5.728;2023-07-29T07:38:08;12.93;;;7.90;;
54641;SDS011;40536;53.194;5.728;2023-07-29T07:40:35;12.38;;;6.28;;
54641;SDS011;40536;53.194;5.728;2023-07-29T07:43:01;12.60;;;8.35;;
54641;SDS011;40536;53.194;5.728;2023-07-29T07:45:27;10.75;;;6.47;;
54641;SDS011;40536;53.194;5.728;2023-07-29T07:47:52;13.02;;;6.78;;
54641;SDS011;40536;53.194;5.728;2023-07-29T07:50:19;11.60;;;6.68;;
54641;SDS011;40536;53.194;5.728;2023-07-29T07:52:45;8.75;;;7.20;;
54641;SDS011;40536;53.194;5.728;2023-07-29T07:55:11;11.40;;;8.05;;
54641;SDS011;40536;53.194;5.728;2023-07-29T07:57:36;14.48;;;7.63;;
54641;SDS011;40536;53.194;5.728;2023-07-29T08:00:02;8.77;;;6.18;;
54641;SDS011;40536;53.194;5.728;2023-07-29T08:02:29;7.95;;;5.93;;
54641;SDS011;40536;53.194;5.728;2023-07-29T08:04:55;10.82;;;5.45;;
54641;SDS011;40536;53.194;5.728;2023-07-29T08:07:22;10.15;;;5.55;;
54641;SDS011;40536;53.194;5.728;2023-07-29T08:09:47;6.22;;;5.00;;
54641;SDS011;40536;53.194;5.728;2023-07-29T08:12:13;8.82;;;5.32;;
54641;SDS011;40536;53.194;5.728;2023-07-29T08:14:38;6.85;;;5.32;;
54641;SDS011;40536;53.194;5.728;2023-07-29T08:17:04;10.60;;;5.28;;
54641;SDS011;40536;53.194;5.728;2023-07-29T08:19:30;7.53;;;5.72;;
54641;SDS011;40536;53.194;5.728;2023-07-29T08:21:55;9.05;;;6.32;;
54641;SDS011;40536;53.194;5.728;2023-07-29T08:24:21;8.02;;;5.60;;
54641;SDS011;40536;53.194;5.728;2023-07-29T08:26:47;6.25;;;4.95;;
54641;SDS011;40536;53.194;5.728;2023-07-29T08:29:12;7.97;;;5.72;;
54641;SDS011;40536;53.194;5.728;2023-07-29T08:31:38;8.80;;;5.80;;
54641;SDS011;40536;53.194;5.728;2023-07-29T08:34:04;9.20;;;5.25;;
54641;SDS011;40536;53.194;5.728;2023-07-29T08:36:29;9.32;;;5.40;;
54641;SDS011;40536;53.194;5.728;2023-07-29T08:38:55;9.80;;;5.38;;
54641;SDS011;40536;53.194;5.728;2023-07-29T08:44:23;6.68;;;5.13;;
54641;SDS011;40536;53.194;5.728;2023-07-29T08:46:53;6.35;;;4.78;;
54641;SDS011;40536;53.194;5.728;2023-07-29T08:49:20;6.88;;;4.85;;
54641;SDS011;40536;53.194;5.728;2023-07-29T08:51:48;8.00;;;4.60;;
54641;SDS011;40536;53.194;5.728;2023-07-29T08:54:15;7.20;;;4.93;;
54641;SDS011;40536;53.194;5.728;2023-07-29T08:56:41;8.10;;;5.15;;
54641;SDS011;40536;53.194;5.728;2023-07-29T08:59:08;6.30;;;5.00;;
54641;SDS011;40536;53.194;5.728;2023-07-29T09:01:35;7.43;;;5.57;;
54641;SDS011;40536;53.194;5.728;2023-07-29T09:04:04;6.65;;;4.78;;
54641;SDS011;40536;53.194;5.728;2023-07-29T09:06:32;7.43;;;4.63;;
54641;SDS011;40536;53.194;5.728;2023-07-29T09:08:58;6.88;;;4.95;;
54641;SDS011;40536;53.194;5.728;2023-07-29T09:11:24;6.30;;;4.68;;
54641;SDS011;40536;53.194;5.728;2023-07-29T09:13:50;7.10;;;4.63;;
54641;SDS011;40536;53.194;5.728;2023-07-29T09:16:16;7.25;;;4.75;;
54641;SDS011;40536;53.194;5.728;2023-07-29T09:18:42;9.30;;;5.35;;
54641;SDS011;40536;53.194;5.728;2023-07-29T09:21:07;9.30;;;5.22;;
54641;SDS011;40536;53.194;5.728;2023-07-29T09:23:40;5.70;;;4.40;;
54641;SDS011;40536;53.194;5.728;2023-07-29T09:26:07;7.75;;;4.72;;
54641;SDS011;40536;53.194;5.728;2023-07-29T09:28:34;8.63;;;4.53;;
54641;SDS011;40536;53.194;5.728;2023-07-29T09:31:01;6.18;;;3.90;;
54641;SDS011;40536;53.194;5.728;2023-07-29T09:33:28;6.25;;;4.03;;
54641;SDS011;40536;53.194;5.728;2023-07-29T09:35:56;7.32;;;4.03;;
54641;SDS011;40536;53.194;5.728;2023-07-29T09:38:28;6.57;;;4.30;;
54641;SDS011;40536;53.194;5.728;2023-07-29T09:40:55;7.57;;;4.60;;
54641;SDS011;40536;53.194;5.728;2023-07-29T09:43:25;7.72;;;3.90;;
54641;SDS011;40536;53.194;5.728;2023-07-29T09:45:56;9.10;;;4.15;;
54641;SDS011;40536;53.194;5.728;2023-07-29T09:48:26;9.88;;;4.70;;
54641;SDS011;40536;53.194;5.728;2023-07-29T09:50:53;8.52;;;4.70;;
54641;SDS011;40536;53.194;5.728;2023-07-29T09:53:19;6.50;;;3.85;;
54641;SDS011;40536;53.194;5.728;2023-07-29T09:55:46;9.43;;;4.47;;
54641;SDS011;40536;53.194;5.728;2023-07-29T09:58:19;7.57;;;4.78;;
54641;SDS011;40536;53.194;5.728;2023-07-29T10:00:51;5.97;;;4.10;;
54641;SDS011;40536;53.194;5.728;2023-07-29T10:03:17;7.55;;;3.80;;
54641;SDS011;40536;53.194;5.728;2023-07-29T10:05:43;4.90;;;3.75;;
54641;SDS011;40536;53.194;5.728;2023-07-29T10:08:10;6.47;;;3.40;;
54641;SDS011;40536;53.194;5.728;2023-07-29T10:10:37;4.82;;;3.35;;
54641;SDS011;40536;53.194;5.728;2023-07-29T10:13:02;6.82;;;3.40;;
54641;SDS011;40536;53.194;5.728;2023-07-29T10:15:29;6.82;;;3.80;;
54641;SDS011;40536;53.194;5.728;2023-07-29T10:17:56;5.07;;;3.35;;
54641;SDS011;40536;53.194;5.728;2023-07-29T10:20:23;5.75;;;3.83;;
54641;SDS011;40536;53.194;5.728;2023-07-29T10:22:48;5.13;;;3.35;;
54641;SDS011;40536;53.194;5.728;2023-07-29T10:25:21;5.00;;;3.88;;
54641;SDS011;40536;53.194;5.728;2023-07-29T10:27:49;5.35;;;3.47;;
54641;SDS011;40536;53.194;5.728;2023-07-29T10:30:29;5.93;;;3.45;;
54641;SDS011;40536;53.194;5.728;2023-07-29T10:32:57;7.28;;;3.60;;
54641;SDS011;40536;53.194;5.728;2023-07-29T10:35:24;6.93;;;3.47;;
54641;SDS011;40536;53.194;5.728;2023-07-29T10:37:50;6.75;;;3.88;;
54641;SDS011;40536;53.194;5.728;2023-07-29T10:40:18;6.13;;;3.30;;
54641;SDS011;40536;53.194;5.728;2023-07-29T10:43:00;7.85;;;3.67;;
54641;SDS011;40536;53.194;5.728;2023-07-29T10:45:28;5.75;;;3.70;;
54641;SDS011;40536;53.194;5.728;2023-07-29T10:48:05;6.97;;;3.70;;
54641;SDS011;40536;53.194;5.728;2023-07-29T10:50:52;6.85;;;3.72;;
54641;SDS011;40536;53.194;5.728;2023-07-29T10:54:03;10.00;;;3.88;;
54641;SDS011;40536;53.194;5.728;2023-07-29T10:56:35;6.55;;;3.30;;
54641;SDS011;40536;53.194;5.728;2023-07-29T11:01:38;6.30;;;3.50;;
54641;SDS011;40536;53.194;5.728;2023-07-29T11:09:42;5.82;;;4.13;;
54641;SDS011;40536;53.194;5.728;2023-07-29T11:15:00;6.47;;;4.32;;
54641;SDS011;40536;53.194;5.728;2023-07-29T11:17:34;6.85;;;4.60;;
54641;SDS011;40536;53.194;5.728;2023-07-29T11:20:01;8.93;;;5.85;;
54641;SDS011;40536;53.194;5.728;2023-07-29T11:22:28;6.78;;;5.97;;
54641;SDS011;40536;53.194;5.728;2023-07-29T11:24:54;8.57;;;5.28;;
54641;SDS011;40536;53.194;5.728;2023-07-29T11:27:20;7.20;;;3.70;;
54641;SDS011;40536;53.194;5.728;2023-07-29T11:29:46;4.78;;;3.20;;
54641;SDS011;40536;53.194;5.728;2023-07-29T11:32:12;5.68;;;3.30;;
54641;SDS011;40536;53.194;5.728;2023-07-29T11:34:38;5.25;;;3.03;;
54641;SDS011;40536;53.194;5.728;2023-07-29T11:37:05;9.05;;;3.30;;
54641;SDS011;40536;53.194;5.728;2023-07-29T11:39:39;7.15;;;3.50;;
54641;SDS011;40536;53.194;5.728;2023-07-29T11:42:12;7.32;;;3.40;;
54641;SDS011;40536;53.194;5.728;2023-07-29T11:44:38;7.75;;;3.45;;
54641;SDS011;40536;53.194;5.728;2023-07-29T11:47:08;6.35;;;3.10;;
54641;SDS011;40536;53.194;5.728;2023-07-29T11:49:34;6.47;;;3.15;;
54641;SDS011;40536;53.194;5.728;2023-07-29T11:52:02;5.72;;;2.97;;
54641;SDS011;40536;53.194;5.728;2023-07-29T11:54:28;7.63;;;3.30;;
54641;SDS011;40536;53.194;5.728;2023-07-29T11:56:54;4.72;;;3.03;;
54641;SDS011;40536;53.194;5.728;2023-07-29T11:59:21;6.68;;;3.30;;
54641;SDS011;40536;53.194;5.728;2023-07-29T12:01:47;5.90;;;3.22;;
54641;SDS011;40536;53.194;5.728;2023-07-29T12:04:12;6.05;;;3.80;;
54641;SDS011;40536;53.194;5.728;2023-07-29T12:06:41;7.38;;;3.28;;
54641;SDS011;40536;53.194;5.728;2023-07-29T12:09:07;5.68;;;3.40;;
54641;SDS011;40536;53.194;5.728;2023-07-29T12:11:34;7.13;;;3.70;;
54641;SDS011;40536;53.194;5.728;2023-07-29T12:14:00;7.28;;;4.07;;
54641;SDS011;40536;53.194;5.728;2023-07-29T12:16:26;6.68;;;3.30;;
54641;SDS011;40536;53.194;5.728;2023-07-29T12:18:51;6.70;;;3.72;;
54641;SDS011;40536;53.194;5.728;2023-07-29T12:21:18;6.55;;;3.90;;
54641;SDS011;40536;53.194;5.728;2023-07-29T12:23:44;8.13;;;3.60;;
54641;SDS011;40536;53.194;5.728;2023-07-29T12:26:10;8.38;;;4.03;;
54641;SDS011;40536;53.194;5.728;2023-07-29T12:28:35;8.73;;;4.05;;
54641;SDS011;40536;53.194;5.728;2023-07-29T12:31:01;9.13;;;4.47;;
54641;SDS011;40536;53.194;5.728;2023-07-29T12:33:32;10.98;;;4.45;;
54641;SDS011;40536;53.194;5.728;2023-07-29T12:36:03;5.90;;;4.00;;
54641;SDS011;40536;53.194;5.728;2023-07-29T12:38:29;7.32;;;3.45;;
54641;SDS011;40536;53.194;5.728;2023-07-29T12:40:55;9.70;;;3.85;;
54641;SDS011;40536;53.194;5.728;2023-07-29T12:43:21;9.02;;;3.97;;
54641;SDS011;40536;53.194;5.728;2023-07-29T12:45:50;7.50;;;3.67;;
54641;SDS011;40536;53.194;5.728;2023-07-29T12:48:16;12.60;;;4.10;;
54641;SDS011;40536;53.194;5.728;2023-07-29T12:50:41;7.13;;;3.83;;
54641;SDS011;40536;53.194;5.728;2023-07-29T12:53:08;10.40;;;4.00;;
54641;SDS011;40536;53.194;5.728;2023-07-29T12:55:36;7.45;;;3.70;;
54641;SDS011;40536;53.194;5.728;2023-07-29T12:58:03;12.23;;;4.68;;
54641;SDS011;40536;53.194;5.728;2023-07-29T13:00:29;8.48;;;3.83;;
54641;SDS011;40536;53.194;5.728;2023-07-29T13:02:54;9.68;;;4.47;;
54641;SDS011;40536;53.194;5.728;2023-07-29T13:05:20;10.38;;;4.13;;
54641;SDS011;40536;53.194;5.728;2023-07-29T13:07:46;6.18;;;3.60;;
54641;SDS011;40536;53.194;5.728;2023-07-29T13:10:13;8.57;;;4.45;;
54641;SDS011;40536;53.194;5.728;2023-07-29T13:12:39;13.90;;;4.25;;
54641;SDS011;40536;53.194;5.728;2023-07-29T13:15:05;7.40;;;3.58;;
54641;SDS011;40536;53.194;5.728;2023-07-29T13:17:31;8.50;;;4.25;;
54641;SDS011;40536;53.194;5.728;2023-07-29T13:19:58;7.43;;;4.00;;
54641;SDS011;40536;53.194;5.728;2023-07-29T13:22:23;6.18;;;3.70;;
54641;SDS011;40536;53.194;5.728;2023-07-29T13:24:49;9.55;;;3.90;;
54641;SDS011;40536;53.194;5.728;2023-07-29T13:27:14;8.65;;;3.72;;
54641;SDS011;40536;53.194;5.728;2023-07-29T13:29:40;9.38;;;3.83;;
54641;SDS011;40536;53.194;5.728;2023-07-29T13:32:06;8.20;;;3.92;;
54641;SDS011;40536;53.194;5.728;2023-07-29T13:34:32;10.05;;;3.90;;
54641;SDS011;40536;53.194;5.728;2023-07-29T13:36:59;7.78;;;3.90;;
54641;SDS011;40536;53.194;5.728;2023-07-29T13:39:25;7.30;;;3.47;;
54641;SDS011;40536;53.194;5.728;2023-07-29T13:41:50;7.38;;;4.20;;
54641;SDS011;40536;53.194;5.728;2023-07-29T13:44:16;7.40;;;3.72;;
54641;SDS011;40536;53.194;5.728;2023-07-29T13:46:42;7.88;;;4.07;;
54641;SDS011;40536;53.194;5.728;2023-07-29T13:49:07;8.32;;;3.63;;
54641;SDS011;40536;53.194;5.728;2023-07-29T13:51:33;7.05;;;3.53;;
54641;SDS011;40536;53.194;5.728;2023-07-29T13:53:58;5.07;;;3.47;;
54641;SDS011;40536;53.194;5.728;2023-07-29T13:56:24;6.20;;;3.30;;
54641;SDS011;40536;53.194;5.728;2023-07-29T13:58:50;7.95;;;3.50;;
54641;SDS011;40536;53.194;5.728;2023-07-29T14:01:15;7.47;;;3.80;;
54641;SDS011;40536;53.194;5.728;2023-07-29T14:03:41;7.22;;;3.90;;
54641;SDS011;40536;53.194;5.728;2023-07-29T14:06:07;8.00;;;3.67;;
54641;SDS011;40536;53.194;5.728;2023-07-29T14:08:32;8.02;;;4.00;;
54641;SDS011;40536;53.194;5.728;2023-07-29T14:11:00;7.57;;;3.92;;
54641;SDS011;40536;53.194;5.728;2023-07-29T14:13:25;10.07;;;4.25;;
54641;SDS011;40536;53.194;5.728;2023-07-29T14:15:51;6.03;;;3.60;;
54641;SDS011;40536;53.194;5.728;2023-07-29T14:18:17;9.38;;;4.07;;
54641;SDS011;40536;53.194;5.728;2023-07-29T14:20:42;7.32;;;3.85;;
54641;SDS011;40536;53.194;5.728;2023-07-29T14:23:08;6.97;;;3.47;;
54641;SDS011;40536;53.194;5.728;2023-07-29T14:25:34;6.85;;;3.33;;
54641;SDS011;40536;53.194;5.728;2023-07-29T14:27:59;5.07;;;3.17;;
54641;SDS011;40536;53.194;5.728;2023-07-29T14:30:25;6.22;;;3.10;;
54641;SDS011;40536;53.194;5.728;2023-07-29T14:32:50;6.70;;;3.13;;
54641;SDS011;40536;53.194;5.728;2023-07-29T14:35:16;9.60;;;4.03;;
54641;SDS011;40536;53.194;5.728;2023-07-29T14:37:42;9.60;;;3.53;;
54641;SDS011;40536;53.194;5.728;2023-07-29T14:40:07;6.47;;;3.40;;
54641;SDS011;40536;53.194;5.728;2023-07-29T14:42:33;6.47;;;3.47;;
54641;SDS011;40536;53.194;5.728;2023-07-29T14:44:59;6.45;;;3.42;;